Time;durP1;ratioP1;P1;durP2;ratioP2;P2;SDS_P1;SDS_P2;PMS_P1;PMS_P2;Temp;Humidity;BMP_temperature;BMP_pressure;BME280_temperature;BME280_humidity;BME280_pressure;Samples;Min_cycle;Max_cycle;Signal;HPM_P1;HPM_P2
2021/12/20 00:01:56;;;;;;;17.55;8.93;;;;;;;4.93;100.00;102712.69;4975640;28;20030;-58
2021/12/20 00:04:21;;;;;;;24.35;8.52;;;;;;;4.90;100.00;102709.88;4975810;28;20061;-58
2021/12/20 00:06:47;;;;;;;18.45;7.93;;;;;;;4.90;100.00;102709.88;4975080;28;20034;-57
2021/12/20 00:09:12;;;;;;;19.05;8.10;;;;;;;4.87;100.00;102712.19;4975976;28;20074;-57
2021/12/20 00:11:37;;;;;;;19.73;7.80;;;;;;;4.87;100.00;102722.41;4975474;28;20027;-58
2021/12/20 00:14:02;;;;;;;18.15;7.18;;;;;;;4.85;100.00;102712.81;4975113;28;20027;-58
2021/12/20 00:16:28;;;;;;;20.65;7.20;;;;;;;4.87;100.00;102709.63;4975600;28;20030;-58
2021/12/20 00:18:53;;;;;;;18.13;6.82;;;;;;;4.82;100.00;102707.47;4975635;28;20031;-58
2021/12/20 00:21:18;;;;;;;17.70;5.88;;;;;;;4.85;100.00;102706.03;4974962;28;20077;-57
2021/12/20 00:23:44;;;;;;;15.23;5.82;;;;;;;4.84;100.00;102713.59;4974963;28;20042;-58
2021/12/20 00:26:09;;;;;;;18.80;5.38;;;;;;;4.84;100.00;102706.84;4974914;28;20030;-58
2021/12/20 00:28:36;;;;;;;15.20;5.15;;;;;;;4.81;100.00;102706.56;4975242;28;20034;-58
2021/12/20 00:31:01;;;;;;;17.67;5.38;;;;;;;4.81;100.00;102704.00;4975416;28;20512;-57
2021/12/20 00:33:28;;;;;;;25.13;5.32;;;;;;;4.80;100.00;102704.78;4974848;28;20090;-58
2021/12/20 00:35:54;;;;;;;21.75;4.63;;;;;;;4.82;100.00;102707.47;4975223;28;20054;-58
2021/12/20 00:41:03;;;;;;;21.88;5.05;;;;;;;4.81;100.00;102696.34;4974424;28;20046;-58
2021/12/20 00:43:28;;;;;;;20.65;5.32;;;;;;;4.81;100.00;102701.44;4975145;28;20034;-58
2021/12/20 00:45:54;;;;;;;19.67;4.88;;;;;;;4.80;100.00;102698.78;4975060;28;20469;-58
2021/12/20 00:48:19;;;;;;;19.98;4.40;;;;;;;4.80;100.00;102702.22;4974542;28;20026;-58
2021/12/20 00:50:45;;;;;;;17.38;4.32;;;;;;;4.80;100.00;102698.78;4974780;28;20042;-58
2021/12/20 00:53:12;;;;;;;21.55;5.28;;;;;;;4.79;100.00;102697.91;4975049;28;20496;-57
2021/12/20 00:55:38;;;;;;;21.80;4.90;;;;;;;4.80;100.00;102694.56;4973963;28;20394;-58
2021/12/20 00:58:04;;;;;;;17.80;4.75;;;;;;;4.77;100.00;102705.41;4974957;28;20034;-57
2021/12/20 01:00:34;;;;;;;19.80;5.20;;;;;;;4.75;100.00;102701.84;4975178;28;20027;-58
2021/12/20 01:03:01;;;;;;;18.63;4.93;;;;;;;4.75;100.00;102698.38;4974059;28;20046;-58
2021/12/20 01:05:27;;;;;;;28.45;5.40;;;;;;;4.72;100.00;102698.13;4975005;28;20114;-58
2021/12/20 01:07:56;;;;;;;22.80;5.30;;;;;;;4.72;100.00;102698.13;4974486;28;20045;-58
2021/12/20 01:10:22;;;;;;;24.48;4.88;;;;;;;4.69;100.00;102698.78;4974068;28;20110;-58
2021/12/20 01:12:50;;;;;;;24.85;5.30;;;;;;;4.69;100.00;102708.13;4974364;28;20481;-58
2021/12/20 01:15:20;;;;;;;;;;;;;;;4.77;100.00;102705.41;4975254;28;20077;-58
2021/12/20 01:17:45;;;;;;;25.20;5.13;;;;;;;4.68;98.29;102699.53;4974250;28;19921;-57
2021/12/20 01:20:11;;;;;;;24.70;4.65;;;;;;;4.67;97.55;102705.41;4974769;28;20113;-57
2021/12/20 01:22:37;;;;;;;26.13;5.00;;;;;;;4.64;97.40;102707.72;4973536;28;20027;-58
2021/12/20 01:25:02;;;;;;;26.05;5.45;;;;;;;4.63;97.37;102705.03;4974561;28;20090;-58
2021/12/20 01:27:28;;;;;;;30.00;5.70;;;;;;;4.65;96.26;102708.59;4974518;28;20065;-58
2021/12/20 01:29:53;;;;;;;26.58;5.65;;;;;;;4.66;95.47;102706.19;4973602;28;20042;-57
2021/12/20 01:32:18;;;;;;;25.80;4.75;;;;;;;4.66;94.63;102695.97;4974320;28;20034;-58
2021/12/20 01:34:44;;;;;;;29.88;5.97;;;;;;;4.68;94.62;102697.00;4974078;28;20470;-58
2021/12/20 01:37:09;;;;;;;24.42;5.30;;;;;;;4.67;95.26;102696.88;4972876;28;20019;-57
2021/12/20 01:39:34;;;;;;;22.83;4.75;;;;;;;4.65;95.97;102693.28;4974182;28;20031;-57
2021/12/20 01:42:02;;;;;;;27.75;5.78;;;;;;;4.64;96.25;102691.50;4974149;28;20031;-58
2021/12/20 01:44:27;;;;;;;24.65;5.20;;;;;;;4.65;95.87;102685.63;4973698;28;20054;-57
2021/12/20 01:46:53;;;;;;;24.40;5.60;;;;;;;4.63;95.80;102687.16;4974251;28;20054;-58
2021/12/20 01:49:19;;;;;;;29.02;6.05;;;;;;;4.63;95.25;102684.59;4974320;28;20026;-57
2021/12/20 01:52:02;;;;;;;36.25;5.53;;;;;;;4.63;94.78;102690.59;4973306;28;20390;-58
2021/12/20 01:54:28;;;;;;;27.40;5.32;;;;;;;4.62;95.11;102688.81;4974172;28;20023;-57
2021/12/20 01:56:53;;;;;;;25.50;5.45;;;;;;;4.61;94.74;102692.16;4973785;28;20042;-57
2021/12/20 01:59:18;;;;;;;26.80;6.30;;;;;;;4.61;93.90;102687.03;4973544;28;20026;-58
2021/12/20 02:01:45;;;;;;;28.00;5.80;;;;;;;4.60;93.66;102691.25;4973823;28;20557;-57
2021/12/20 02:04:12;;;;;;;28.48;5.80;;;;;;;4.57;93.44;102678.22;4974004;28;20047;-57
2021/12/20 02:06:45;;;;;;;31.40;6.00;;;;;;;4.56;93.65;102689.19;4973001;28;20045;-57
2021/12/20 02:09:16;;;;;;;38.58;6.15;;;;;;;4.54;93.89;102685.59;4974035;28;20402;-58
2021/12/20 02:11:43;;;;;;;31.73;6.40;;;;;;;4.54;94.37;102685.59;4973249;28;20027;-57
2021/12/20 02:14:10;;;;;;;26.88;6.10;;;;;;;4.53;94.76;102685.50;4974110;28;20022;-57
2021/12/20 02:16:36;;;;;;;35.28;6.00;;;;;;;4.53;93.63;102682.94;4973753;28;20023;-57
2021/12/20 02:19:08;;;;;;;25.75;6.00;;;;;;;4.53;94.16;102682.94;4973138;28;20486;-57
2021/12/20 02:21:34;;;;;;;26.60;5.22;;;;;;;4.50;95.34;102687.81;4973545;28;20127;-57
2021/12/20 02:23:59;;;;;;;27.95;6.22;;;;;;;4.48;95.00;102682.56;4974077;28;20054;-57
2021/12/20 02:26:25;;;;;;;25.98;5.50;;;;;;;4.50;94.20;102687.81;4973021;28;20039;-57
2021/12/20 02:28:56;;;;;;;28.00;6.18;;;;;;;4.43;95.90;102686.41;4973497;28;20038;-57
2021/12/20 02:39:19;;;;;;;27.70;6.40;;;;;;;4.44;94.28;102672.84;4974247;28;20034;-58
2021/12/20 02:41:44;;;;;;;30.65;6.63;;;;;;;4.41;94.52;102681.13;4972737;28;20031;-57
2021/12/20 02:44:22;;;;;;;34.88;6.45;;;;;;;4.42;93.67;102682.03;4973720;28;20062;-57
2021/12/20 02:47:02;;;;;;;32.83;6.90;;;;;;;4.45;93.24;102669.53;4973526;28;20378;-58
2021/12/20 02:49:28;;;;;;;28.33;6.60;;;;;;;4.44;93.79;102677.94;4977489;28;20097;-57
2021/12/20 02:52:00;;;;;;;36.00;6.90;;;;;;;4.48;92.68;102674.00;4976970;28;20458;-57
2021/12/20 02:54:25;;;;;;;29.90;6.55;;;;;;;4.41;94.18;102670.03;4976573;28;20038;-57
2021/12/20 02:56:50;;;;;;;29.20;5.60;;;;;;;4.42;93.08;102675.28;4976894;28;20031;-58
2021/12/20 02:59:17;;;;;;;30.00;6.00;;;;;;;4.41;93.99;102677.69;4977416;28;20390;-57
2021/12/20 03:01:46;;;;;;;36.13;5.82;;;;;;;4.39;94.06;102681.78;4975946;28;20367;-57
2021/12/20 03:04:12;;;;;;;36.10;6.22;;;;;;;4.38;93.56;102677.44;4976884;28;20039;-57
2021/12/20 03:06:47;;;;;;;35.65;6.63;;;;;;;4.39;93.63;102669.91;4976791;28;20027;-58
2021/12/20 03:09:17;;;;;;;37.33;5.82;;;;;;;4.38;93.89;102667.25;4976201;28;20031;-57
2021/12/20 03:11:44;;;;;;;37.97;6.70;;;;;;;4.38;93.84;102672.34;4976848;28;20034;-57
2021/12/20 03:14:17;;;;;;;49.55;6.85;;;;;;;4.37;94.21;102670.56;4976745;28;20381;-57
2021/12/20 03:16:42;;;;;;;31.13;6.13;;;;;;;4.37;93.83;102679.09;4975808;28;20493;-57
2021/12/20 03:19:07;;;;;;;45.38;7.10;;;;;;;4.35;94.45;102684.84;4976907;28;20031;-58
2021/12/20 03:21:33;;;;;;;31.77;6.40;;;;;;;4.37;94.08;102671.44;4976480;28;20113;-57
2021/12/20 03:23:58;;;;;;;26.38;6.32;;;;;;;4.36;94.13;102667.09;4975854;28;20035;-58
2021/12/20 03:26:24;;;;;;;29.98;6.55;;;;;;;4.35;94.70;102672.06;4977030;28;20038;-57
2021/12/20 03:28:51;;;;;;;27.98;6.20;;;;;;;4.36;93.96;102673.88;4976550;28;20046;-57
2021/12/20 03:31:16;;;;;;;38.28;6.57;;;;;;;4.35;93.76;102672.97;4975991;28;20027;-57
2021/12/20 03:33:41;;;;;;;35.90;6.97;;;;;;;4.37;93.78;102678.22;4976365;28;20057;-58
2021/12/20 03:36:07;;;;;;;28.88;6.20;;;;;;;4.37;93.69;102675.66;4975745;28;20430;-57
2021/12/20 03:38:32;;;;;;;35.47;6.80;;;;;;;4.34;93.40;102672.84;4976130;28;20031;-57
2021/12/20 03:40:57;;;;;;;30.08;5.70;;;;;;;4.35;92.60;102682.28;4976479;28;20028;-57
2021/12/20 03:43:30;;;;;;;28.90;5.53;;;;;;;4.35;92.92;102674.63;4975482;28;20031;-57
2021/12/20 03:45:57;;;;;;;33.78;6.38;;;;;;;4.34;93.21;102676.28;4976279;28;20106;-58
2021/12/20 03:48:23;;;;;;;31.50;6.10;;;;;;;4.34;93.28;102675.38;4976418;28;20022;-57
2021/12/20 03:50:48;;;;;;;40.95;6.60;;;;;;;4.30;93.65;102676.81;4975135;28;20030;-57
2021/12/20 03:53:13;;;;;;;36.92;5.90;;;;;;;4.31;93.78;102675.13;4976091;28;20026;-56
2021/12/20 03:55:38;;;;;;;27.55;5.80;;;;;;;4.27;93.84;102674.88;4975815;28;20030;-57
2021/12/20 03:58:04;;;;;;;35.38;6.60;;;;;;;4.28;93.81;102671.53;4974903;28;20061;-57
2021/12/20 04:00:29;;;;;;;28.88;5.65;;;;;;;4.26;93.80;102683.31;4975656;28;20554;-57
2021/12/20 04:02:55;;;;;;;35.15;6.78;;;;;;;4.28;92.71;102679.19;4975535;28;20410;-57
2021/12/20 04:05:20;;;;;;;30.42;5.78;;;;;;;4.27;93.97;102674.88;4975311;28;20387;-57
2021/12/20 04:07:45;;;;;;;27.52;6.38;;;;;;;4.30;92.85;102676.81;4975472;28;20081;-57
2021/12/20 04:10:11;;;;;;;40.00;7.20;;;;;;;4.30;92.60;102669.16;4976136;28;20034;-57
2021/12/20 04:12:36;;;;;;;38.80;6.65;;;;;;;4.29;92.33;102677.56;4974922;28;20109;-57
2021/12/20 04:15:02;;;;;;;28.85;6.47;;;;;;;4.26;92.63;102678.19;4975759;28;20027;-57
2021/12/20 04:17:27;;;;;;;28.95;5.18;;;;;;;4.26;92.51;102675.66;4975762;28;20023;-57
2021/12/20 04:19:53;;;;;;;32.22;5.40;;;;;;;4.24;92.08;102668.63;4974570;28;20053;-57
2021/12/20 04:22:19;;;;;;;34.78;6.45;;;;;;;4.23;92.15;102670.25;4975482;28;20031;-57
2021/12/20 04:24:45;;;;;;;32.83;6.18;;;;;;;4.25;91.20;102673.84;4975519;28;20105;-57
2021/12/20 04:27:11;;;;;;;33.70;6.47;;;;;;;4.26;91.08;102672.19;4974945;28;20023;-57
2021/12/20 04:29:36;;;;;;;29.60;5.97;;;;;;;4.27;90.96;102673.97;4975168;28;20038;-57
2021/12/20 04:32:02;;;;;;;35.03;5.40;;;;;;;4.28;90.38;102680.88;4975479;28;20118;-57
2021/12/20 04:34:27;;;;;;;39.97;6.25;;;;;;;4.25;91.24;102676.41;4974673;28;20027;-57
2021/12/20 04:36:53;;;;;;;30.45;5.60;;;;;;;4.28;86.46;102671.53;4974995;28;20493;-57
2021/12/20 04:39:22;;;;;;;31.73;5.97;;;;;;;4.28;86.73;102660.47;4975031;28;20038;-57
2021/12/20 04:41:47;;;;;;;31.27;5.57;;;;;;;4.28;86.67;102658.78;4975066;28;20030;-57
2021/12/20 04:44:13;;;;;;;34.28;6.40;;;;;;;4.27;87.10;102659.56;4975312;28;20027;-58
2021/12/20 04:46:38;;;;;;;30.73;5.15;;;;;;;4.32;85.13;102677.81;4974297;28;20030;-58
2021/12/20 04:49:04;;;;;;;39.17;6.10;;;;;;;4.31;85.67;102670.91;4975169;28;20027;-57
2021/12/20 04:51:29;;;;;;;38.13;5.97;;;;;;;4.31;84.97;102675.13;4975037;28;20031;-57
2021/12/20 04:53:54;;;;;;;31.77;5.95;;;;;;;4.29;85.27;102670.78;4974014;28;20443;-58
2021/12/20 04:56:20;;;;;;;32.58;5.78;;;;;;;4.28;85.64;102663.88;4975072;28;20077;-57
2021/12/20 04:58:45;;;;;;;35.25;6.85;;;;;;;4.34;84.45;102670.28;4974768;28;20023;-57
2021/12/20 05:01:10;;;;;;;31.20;5.28;;;;;;;4.31;86.11;102667.47;4974267;28;20042;-57
2021/12/20 05:03:35;;;;;;;30.95;5.88;;;;;;;4.31;85.07;102675.13;4974433;28;20047;-57
2021/12/20 05:06:01;;;;;;;29.40;6.00;;;;;;;4.26;85.41;102678.19;4974771;28;20031;-58
2021/12/20 05:08:33;;;;;;;28.17;6.20;;;;;;;4.23;86.44;102675.38;4974218;28;20475;-57
2021/12/20 05:10:59;;;;;;;34.22;6.53;;;;;;;4.20;86.22;102676.78;4974687;28;20378;-57
2021/12/20 05:13:24;;;;;;;48.40;6.53;;;;;;;4.21;84.77;102673.44;4974809;28;20462;-57
2021/12/20 05:15:49;;;;;;;30.83;5.80;;;;;;;4.20;84.92;102682.78;4973650;28;20043;-57
2021/12/20 05:18:15;;;;;;;38.63;6.22;;;;;;;4.20;85.41;102681.91;4974611;28;20031;-57
2021/12/20 05:20:40;;;;;;;36.40;6.95;;;;;;;4.19;86.02;102683.53;4974210;28;20030;-57
2021/12/20 05:23:07;;;;;;;30.55;6.45;;;;;;;4.18;85.80;102683.41;4973977;28;20122;-57
2021/12/20 05:25:33;;;;;;;31.25;7.00;;;;;;;4.20;85.30;102687.00;4974434;28;20027;-57
2021/12/20 05:27:58;;;;;;;33.20;6.75;;;;;;;4.18;85.69;102673.19;4974596;28;20081;-57
2021/12/20 05:30:24;;;;;;;35.00;6.30;;;;;;;4.19;85.29;102673.31;4973887;28;20102;-57
2021/12/20 05:32:49;;;;;;;31.27;5.90;;;;;;;4.20;85.47;102675.13;4974190;28;20038;-57
2021/12/20 05:35:16;;;;;;;25.15;6.00;;;;;;;4.20;85.92;102687.00;4974370;28;20019;-57
2021/12/20 05:37:42;;;;;;;29.55;6.40;;;;;;;4.16;86.56;102680.72;4973561;28;20034;-57
2021/12/20 05:40:10;;;;;;;34.17;7.13;;;;;;;4.14;86.69;102684.81;4974475;28;20027;-57
2021/12/20 05:42:35;;;;;;;35.47;7.18;;;;;;;4.15;86.95;102683.16;4973765;28;20027;-57
2021/12/20 05:45:02;;;;;;;38.03;7.20;;;;;;;4.13;87.18;102683.00;4973949;28;20078;-56
2021/12/20 05:47:27;;;;;;;33.83;7.28;;;;;;;4.11;87.19;102682.88;4974183;28;20026;-57
2021/12/20 05:49:53;;;;;;;40.90;7.07;;;;;;;4.11;87.40;102684.56;4973119;28;20129;-57
2021/12/20 05:52:18;;;;;;;37.70;7.40;;;;;;;4.09;87.30;102683.50;4974375;28;20024;-57
2021/12/20 05:54:45;;;;;;;38.80;7.70;;;;;;;4.09;86.99;102678.41;4973912;28;20039;-57
2021/12/20 05:57:10;;;;;;;29.30;6.57;;;;;;;4.08;88.13;102691.91;4973563;28;20026;-58
2021/12/20 05:59:35;;;;;;;35.70;7.40;;;;;;;4.09;86.93;102693.72;4973972;28;20378;-57
2021/12/20 06:02:01;;;;;;;48.65;8.15;;;;;;;4.09;87.26;102686.06;4973951;28;20062;-58
2021/12/20 06:04:26;;;;;;;32.90;6.53;;;;;;;4.12;85.87;102676.13;4973166;28;20058;-57
2021/12/20 06:06:51;;;;;;;40.10;6.00;;;;;;;4.13;85.57;102683.00;4973962;28;20023;-57
2021/12/20 06:09:17;;;;;;;34.15;6.70;;;;;;;4.12;86.87;102689.78;4973915;28;20027;-58
2021/12/20 06:11:42;;;;;;;40.70;7.47;;;;;;;4.15;86.38;102681.50;4973056;28;20035;-57
2021/12/20 06:14:08;;;;;;;34.03;7.50;;;;;;;4.13;86.29;102675.34;4974153;28;20030;-57
2021/12/20 06:16:33;;;;;;;39.95;6.53;;;;;;;4.14;86.63;102687.34;4973786;28;20437;-57
2021/12/20 06:18:58;;;;;;;31.35;5.97;;;;;;;4.18;83.51;102688.50;4973185;28;20398;-57
2021/12/20 06:21:24;;;;;;;32.45;5.65;;;;;;;4.20;83.20;102685.31;4974033;28;20090;-57
2021/12/20 06:23:49;;;;;;;33.35;6.40;;;;;;;4.20;83.16;102698.09;4977424;28;20035;-57
2021/12/20 06:26:14;;;;;;;34.15;6.72;;;;;;;4.20;84.29;102695.53;4977157;28;20031;-57
2021/12/20 06:28:40;;;;;;;40.42;6.47;;;;;;;4.18;84.77;102694.50;4977416;28;20037;-57
2021/12/20 06:31:05;;;;;;;29.08;5.07;;;;;;;4.13;85.63;102695.75;4977698;28;20525;-57
2021/12/20 06:33:30;;;;;;;27.40;5.75;;;;;;;4.11;85.81;102693.09;4976789;28;20034;-57
2021/12/20 06:35:55;;;;;;;33.60;5.82;;;;;;;4.05;86.45;102694.22;4977471;28;20051;-57
2021/12/20 06:38:22;;;;;;;41.22;6.47;;;;;;;4.05;86.17;102700.22;4977478;28;20038;-57
2021/12/20 06:40:52;;;;;;;38.72;6.30;;;;;;;4.01;87.40;102700.72;4976708;28;20051;-57
2021/12/20 06:43:18;;;;;;;30.42;5.22;;;;;;;4.00;87.03;102705.69;4977514;28;20030;-57
2021/12/20 06:45:45;;;;;;;33.83;6.45;;;;;;;4.01;86.37;102707.50;4977076;28;20026;-57
2021/12/20 06:48:10;;;;;;;38.37;6.53;;;;;;;4.02;85.02;102699.06;4976529;28;20521;-57
2021/12/20 06:50:36;;;;;;;42.58;7.45;;;;;;;4.03;85.75;102700.84;4977231;28;20070;-57
2021/12/20 06:53:03;;;;;;;36.17;6.68;;;;;;;4.05;85.12;102717.19;4976686;28;20035;-57
2021/12/20 06:55:28;;;;;;;41.60;6.70;;;;;;;4.04;84.94;102716.31;4977292;28;20482;-57
2021/12/20 06:57:53;;;;;;;31.27;6.10;;;;;;;4.05;85.58;102714.63;4976957;28;20034;-57
2021/12/20 07:00:19;;;;;;;36.08;6.18;;;;;;;4.04;85.54;102717.94;4976390;28;20037;-57
2021/12/20 07:02:44;;;;;;;29.77;6.57;;;;;;;4.04;84.91;102720.50;4976466;28;20055;-57
2021/12/20 07:05:10;;;;;;;27.30;6.05;;;;;;;4.01;86.13;102720.25;4976965;28;20058;-58
2021/12/20 07:07:35;;;;;;;41.30;7.93;;;;;;;4.01;85.57;102722.78;4976138;28;20038;-57
2021/12/20 07:10:05;;;;;;;32.30;6.90;;;;;;;4.00;85.03;102728.66;4977086;28;20043;-57
2021/12/20 07:12:33;;;;;;;27.42;7.28;;;;;;;3.99;84.82;102717.56;4977067;28;20088;-57
2021/12/20 07:14:58;;;;;;;35.85;7.47;;;;;;;3.99;85.42;102722.66;4976134;28;20030;-57
2021/12/20 07:17:23;;;;;;;37.47;6.90;;;;;;;4.00;85.49;102723.56;4976980;28;20387;-57
2021/12/20 07:19:49;;;;;;;30.58;7.68;;;;;;;4.00;84.76;102719.31;4976514;28;20089;-57
2021/12/20 07:22:14;;;;;;;36.95;7.53;;;;;;;3.97;85.76;102724.19;4976044;28;20035;-58
2021/12/20 07:24:39;;;;;;;47.30;8.07;;;;;;;3.97;86.25;102725.84;4976470;28;20166;-57
2021/12/20 07:27:07;;;;;;;37.05;7.38;;;;;;;3.97;86.35;102725.84;4976665;28;20042;-57
2021/12/20 07:29:32;;;;;;;;;;;;;;;4.08;87.79;102732.75;4976046;28;20046;-57
2021/12/20 07:31:57;;;;;;;37.43;8.30;;;;;;;3.95;86.73;102726.59;4976473;28;19914;-57
2021/12/20 07:34:23;;;;;;;42.63;7.93;;;;;;;3.95;86.05;102725.69;4975407;28;20413;-58
2021/12/20 07:36:50;;;;;;;36.08;7.45;;;;;;;3.96;86.79;102722.38;4975446;28;20034;-57
2021/12/20 07:39:15;;;;;;;33.35;7.28;;;;;;;3.92;87.55;102721.22;4976501;28;20026;-58
2021/12/20 07:41:41;;;;;;;40.95;7.80;;;;;;;3.90;87.79;102725.31;4976111;28;20483;-57
2021/12/20 07:44:06;;;;;;;38.63;7.30;;;;;;;3.89;88.35;102720.09;4975527;28;20031;-57
2021/12/20 07:46:31;;;;;;;34.72;7.32;;;;;;;3.85;88.87;102733.31;4976234;28;20028;-57
2021/12/20 07:48:57;;;;;;;40.28;8.60;;;;;;;3.85;88.83;102729.13;4976024;28;20031;-57
2021/12/20 07:51:23;;;;;;;39.70;7.72;;;;;;;3.87;88.75;102721.59;4975533;28;20428;-58
2021/12/20 07:53:48;;;;;;;35.40;7.80;;;;;;;3.83;89.43;102735.72;4976101;28;20391;-57
2021/12/20 07:56:14;;;;;;;46.92;9.27;;;;;;;3.86;88.60;102730.00;4975706;28;20027;-57
2021/12/20 07:58:39;;;;;;;39.90;6.70;;;;;;;3.87;87.30;102735.22;4975581;28;20027;-57
2021/12/20 08:01:04;;;;;;;40.78;8.55;;;;;;;3.94;85.74;102727.34;4975984;28;20161;-57
2021/12/20 08:03:31;;;;;;;37.75;8.38;;;;;;;3.93;88.13;102738.31;4974987;28;20078;-57
2021/12/20 08:05:56;;;;;;;38.40;9.07;;;;;;;3.92;88.43;102723.78;4975866;28;20027;-57
2021/12/20 08:08:22;;;;;;;37.47;8.43;;;;;;;3.97;87.24;102731.84;4975909;28;20042;-58
2021/12/20 08:10:47;;;;;;;41.42;7.75;;;;;;;3.98;87.87;102740.38;4974921;28;20080;-57
2021/12/20 08:13:13;;;;;;;39.65;9.70;;;;;;;3.97;88.80;102743.72;4975816;28;20030;-57
2021/12/20 08:15:39;;;;;;;36.17;8.25;;;;;;;3.97;89.40;102749.69;4975317;28;20479;-57
2021/12/20 08:18:05;;;;;;;32.33;7.13;;;;;;;4.00;88.81;102749.06;4975187;28;20027;-57
2021/12/20 08:20:31;;;;;;;36.05;8.60;;;;;;;4.01;88.36;102743.22;4975711;28;20073;-57
2021/12/20 08:22:56;;;;;;;39.05;7.40;;;;;;;4.04;88.62;102740.91;4975599;28;20094;-57
2021/12/20 08:25:22;;;;;;;40.20;6.90;;;;;;;4.04;88.37;102753.66;4974896;28;20026;-57
2021/12/20 08:27:49;;;;;;;32.30;6.78;;;;;;;4.04;88.00;102756.22;4975109;28;20038;-57
2021/12/20 08:30:15;;;;;;;39.67;6.70;;;;;;;4.07;87.60;102748.84;4975423;28;20038;-58
2021/12/20 08:32:41;;;;;;;30.00;6.55;;;;;;;4.09;86.90;102744.75;4974626;28;20018;-57
2021/12/20 08:35:09;;;;;;;36.60;7.30;;;;;;;4.10;87.96;102744.00;4975479;28;20382;-57
2021/12/20 08:37:34;;;;;;;36.90;6.30;;;;;;;4.12;88.13;102745.03;4975162;28;20547;-57
2021/12/20 08:39:59;;;;;;;35.10;6.45;;;;;;;4.13;87.55;102744.25;4974512;28;20117;-58
2021/12/20 08:42:25;;;;;;;31.65;7.70;;;;;;;4.16;87.93;102748.72;4975097;28;20194;-57
2021/12/20 08:44:51;;;;;;;44.00;7.50;;;;;;;4.20;87.52;102753.34;4974507;28;20057;-57
2021/12/20 08:47:17;;;;;;;31.50;6.32;;;;;;;4.21;87.00;102755.13;4974698;28;20041;-57
2021/12/20 08:49:43;;;;;;;28.83;6.57;;;;;;;4.24;87.73;102761.38;4975006;28;20386;-56
2021/12/20 08:52:08;;;;;;;31.40;7.05;;;;;;;4.26;87.35;102756.41;4975028;28;20382;-57
2021/12/20 08:54:33;;;;;;;38.80;7.55;;;;;;;4.30;87.15;102750.84;4974149;28;20489;-58
2021/12/20 08:56:59;;;;;;;32.70;7.32;;;;;;;4.35;87.43;102749.56;4975005;28;20026;-57
2021/12/20 08:59:25;;;;;;;34.50;7.63;;;;;;;4.39;87.37;102748.16;4974839;28;20034;-58
2021/12/20 09:01:51;;;;;;;38.58;8.13;;;;;;;4.41;87.47;102754.28;4974113;28;20371;-58
2021/12/20 09:04:16;;;;;;;33.25;6.53;;;;;;;4.41;85.42;102755.16;4974618;28;20074;-57
2021/12/20 09:06:43;;;;;;;33.03;6.55;;;;;;;4.43;84.79;102756.22;4973851;28;20054;-58
2021/12/20 09:09:12;;;;;;;32.17;6.47;;;;;;;4.44;85.83;102750.34;4974689;28;20475;-57
2021/12/20 09:11:38;;;;;;;33.30;6.85;;;;;;;4.47;85.48;102759.94;4974511;28;20026;-57
2021/12/20 09:14:04;;;;;;;33.78;6.80;;;;;;;4.46;85.65;102750.47;4974016;28;20377;-57
2021/12/20 09:16:29;;;;;;;35.75;6.93;;;;;;;4.48;85.87;102759.16;4974582;28;20035;-57
2021/12/20 09:18:55;;;;;;;34.72;6.15;;;;;;;4.50;83.96;102762.72;4974580;28;20029;-57
2021/12/20 09:21:20;;;;;;;33.40;7.13;;;;;;;4.50;83.31;102767.84;4973885;28;20030;-58
2021/12/20 09:23:46;;;;;;;35.00;6.07;;;;;;;4.51;85.31;102767.06;4974255;28;20030;-57
2021/12/20 09:26:12;;;;;;;34.97;5.85;;;;;;;4.51;86.01;102761.97;4974498;28;20047;-57
2021/12/20 09:28:38;;;;;;;31.30;7.53;;;;;;;4.54;85.24;102771.56;4973314;28;20124;-57
2021/12/20 09:31:04;;;;;;;40.00;7.05;;;;;;;4.54;85.45;102769.88;4974625;28;20031;-57
2021/12/20 09:33:30;;;;;;;32.17;6.55;;;;;;;4.57;86.00;102774.34;4974479;28;20034;-56
2021/12/20 09:35:56;;;;;;;35.33;7.55;;;;;;;4.59;86.95;102771.16;4973463;28;20041;-57
2021/12/20 09:38:21;;;;;;;29.83;6.60;;;;;;;4.63;85.42;102776.56;4974423;28;20164;-55
2021/12/20 09:43:40;;;;;;;32.30;6.50;;;;;;;4.70;86.07;102779.75;4973178;28;20039;-57
2021/12/20 09:46:06;;;;;;;46.22;7.18;;;;;;;4.73;85.26;102780.00;4974390;28;20034;-57
2021/12/20 09:48:34;;;;;;;34.17;6.07;;;;;;;4.76;85.13;102780.28;4973996;28;20025;-55
2021/12/20 09:51:01;;;;;;;32.90;6.00;;;;;;;4.78;85.64;102782.97;4973469;28;20022;-56
2021/12/20 09:53:26;;;;;;;36.72;6.57;;;;;;;4.79;84.60;102789.88;4974051;28;20533;-56
2021/12/20 09:55:51;;;;;;;35.17;8.18;;;;;;;4.78;85.62;102780.41;4973098;28;20062;-55
2021/12/20 09:58:23;;;;;;;33.97;7.40;;;;;;;4.81;86.39;102787.44;4973609;28;20027;-56
2021/12/20 10:00:50;;;;;;;32.90;7.18;;;;;;;4.83;85.54;102788.44;4974060;28;20029;-57
2021/12/20 10:03:19;;;;;;;32.80;7.95;;;;;;;4.85;85.89;102789.47;4973031;28;20102;-56
2021/12/20 10:05:44;;;;;;;46.38;14.88;;;;;;;4.86;83.76;102791.28;4973790;28;20035;-56
2021/12/20 10:08:15;;;;;;;41.90;14.38;;;;;;;4.87;85.21;102787.97;4973938;28;20037;-57
2021/12/20 10:10:40;;;;;;;32.83;8.88;;;;;;;4.86;84.84;102784.47;4973275;28;20042;-56
2021/12/20 10:13:06;;;;;;;35.47;8.17;;;;;;;4.87;85.24;102793.94;4973950;28;20466;-56
2021/12/20 10:15:34;;;;;;;30.17;6.88;;;;;;;4.89;85.74;102794.97;4973869;28;20285;-57
2021/12/20 10:18:00;;;;;;;36.78;6.70;;;;;;;4.88;85.56;102785.53;4973183;28;20486;-56
2021/12/20 10:20:28;;;;;;;37.55;6.22;;;;;;;4.87;84.80;102791.38;4973884;28;20105;-57
2021/12/20 10:23:06;;;;;;;;;;;;;;;4.99;86.70;102782.97;4974047;28;20037;-57
2021/12/20 10:25:32;;;;;;;27.77;6.22;;;;;;;4.90;85.23;102790.75;4973109;28;19914;-56
2021/12/20 10:28:19;;;;;;;32.17;6.50;;;;;;;4.93;86.34;102791.00;4973851;28;20038;-57
2021/12/20 10:30:57;;;;;;;32.75;7.30;;;;;;;4.91;84.51;102796.00;4973526;28;20591;-57
2021/12/20 10:33:23;;;;;;;;;;;;;;;5.02;86.71;102785.78;4973752;28;20046;-57
2021/12/20 10:35:56;;;;;;;36.58;6.70;;;;;;;4.95;85.40;102776.69;4973416;28;20273;-57
2021/12/20 10:38:35;;;;;;;31.23;6.88;;;;;;;4.99;87.94;102782.97;4972887;28;20564;-56
2021/12/20 10:41:11;;;;;;;32.55;7.13;;;;;;;4.99;86.00;102782.97;4973704;28;20093;-56
2021/12/20 10:43:40;;;;;;;30.60;6.57;;;;;;;4.99;84.92;102782.97;4973391;28;20047;-57
2021/12/20 10:46:15;;;;;;;32.90;6.30;;;;;;;5.03;85.53;102785.88;4973047;28;20031;-56
2021/12/20 10:48:41;;;;;;;33.78;6.40;;;;;;;5.09;84.64;102790.63;4973546;28;20096;-56
2021/12/20 10:51:17;;;;;;;38.33;7.45;;;;;;;5.14;85.28;102794.47;4973568;28;20030;-56
2021/12/20 10:53:50;;;;;;;23.48;6.45;;;;;;;5.17;85.42;102784.50;4972577;28;20039;-57
2021/12/20 10:56:18;;;;;;;33.53;6.40;;;;;;;5.23;85.40;102777.34;4973531;28;20470;-57
2021/12/20 10:58:44;;;;;;;35.47;7.22;;;;;;;5.26;82.94;102777.56;4973262;28;20465;-57
2021/12/20 11:04:00;;;;;;;27.98;6.55;;;;;;;5.35;83.67;102774.88;4973076;28;20449;-56
2021/12/20 11:06:38;;;;;;;33.78;6.13;;;;;;;5.40;84.29;102778.72;4972654;28;20030;-56
2021/12/20 11:09:19;;;;;;;27.73;6.20;;;;;;;5.50;84.91;102777.81;4975823;28;20023;-57
2021/12/20 11:11:53;;;;;;;32.58;6.25;;;;;;;5.47;84.23;102784.34;4976791;28;20042;-56
2021/12/20 11:14:22;;;;;;;24.30;6.28;;;;;;;5.51;84.72;102781.25;4976696;28;20114;-57
2021/12/20 11:16:50;;;;;;;28.15;6.50;;;;;;;5.55;84.63;102779.06;4976572;28;20078;-57
2021/12/20 11:19:18;;;;;;;28.77;6.22;;;;;;;5.61;84.77;102779.53;4976921;28;20030;-57
2021/12/20 11:21:49;;;;;;;31.10;5.95;;;;;;;5.68;83.68;102780.06;4975505;28;20533;-57
2021/12/20 11:24:18;;;;;;;27.90;6.47;;;;;;;5.72;83.62;102767.63;4976801;28;20035;-57
2021/12/20 11:26:43;;;;;;;32.42;6.60;;;;;;;5.86;83.54;102768.75;4976820;28;20026;-57
2021/12/20 11:29:10;;;;;;;33.83;6.05;;;;;;;6.06;80.32;102764.34;4975776;28;20027;-57
2021/12/20 11:31:37;;;;;;;40.75;7.30;;;;;;;6.34;80.67;102766.50;4976562;28;20061;-57
2021/12/20 11:34:03;;;;;;;39.58;6.97;;;;;;;6.61;77.64;102769.41;4976568;28;20533;-59
2021/12/20 11:36:29;;;;;;;34.92;6.65;;;;;;;6.91;78.10;102771.75;4975808;28;20026;-57
2021/12/20 11:38:54;;;;;;;31.08;6.13;;;;;;;7.15;77.34;102773.47;4976263;28;20367;-57